Overview Statistics Trail Chart Weather Telemetry Raw packets
 

This is the latest recevied weather packets stored in our database for station/object IZ1RFL-3. If no packets are shown the sender has not sent any weather packets the latest 10 day(s).

<< 2 3 4 5 6 7 8 >>
Time Temp. Humidity Pressure Rain* Wind** Luminosity Snow
1788461810 30° C 32% 1019.1 hPa - - - -
1788460920 31.11° C 30% 1018.9 hPa - - - -
1788460010 31.11° C 29% 1019 hPa - - - -
1788459110 31.67° C 28% 1018.8 hPa - - - -
1788458210 31.67° C 27% 1018.8 hPa - - - -
1788457310 32.22° C 25% 1018.7 hPa - - - -
1788456410 32.22° C 25% 1018.6 hPa - - - -
1788455510 32.78° C 24% 1018.6 hPa - - - -
1788454610 33.33° C 24% 1018.6 hPa - - - -
1788453710 32.78° C 24% 1018.4 hPa - - - -
1788452810 33.33° C 23% 1018.4 hPa - - - -
1788451910 33.33° C 23% 1018.6 hPa - - - -
1788451010 33.89° C 22% 1018.6 hPa - - - -
1788450110 32.78° C 23% 1018.7 hPa - - - -
1788449210 33.33° C 22% 1018.8 hPa - - - -
1788448310 33.33° C 21% 1018.9 hPa - - - -
1788447410 33.89° C 23% 1019 hPa - - - -
1788446510 33.33° C 25% 1019.1 hPa - - - -
1788445617 33.33° C 25% 1019.3 hPa - - - -
1788444710 32.78° C 26% 1019.3 hPa - - - -
1788443810 35° C 24% 1019.5 hPa - - - -
1788442910 33.33° C 27% 1019.7 hPa - - - -
1788442010 33.33° C 27% 1019.9 hPa - - - -
1788441110 33.33° C 27% 1019.9 hPa - - - -
1788440210 34.44° C 26% 1020.1 hPa - - - -

* Rain since midnight (hover to see other rain measurements)
** Current wind speed in m/s (hover to see current wind gust speed)